Time;durP1;ratioP1;P1;durP2;ratioP2;P2;SDS_P1;SDS_P2;PMS_P1;PMS_P2;Temp;Humidity;BMP_temperature;BMP_pressure;BME280_temperature;BME280_humidity;BME280_pressure;Samples;Min_cycle;Max_cycle;Signal;HPM_P1;HPM_P2
2023/02/23 00:00:31;;;;;;;6.93;5.35;;;;;;;17.63;53.54;101342.16;6208171;22;20015;-90
2023/02/23 00:03:04;;;;;;;7.43;4.97;;;;;;;17.62;53.64;101354.31;6232133;22;20000;-90
2023/02/23 00:05:34;;;;;;;8.55;5.45;;;;;;;17.63;53.57;101357.78;6255412;22;20012;-90
2023/02/23 00:08:00;;;;;;;6.47;4.88;;;;;;;17.63;53.78;101370.78;6257042;22;20299;-91
2023/02/23 00:10:29;;;;;;;8.00;5.53;;;;;;;17.63;53.66;101368.19;6232540;22;20015;-90
2023/02/23 00:12:58;;;;;;;8.70;5.45;;;;;;;17.63;53.50;101370.78;6231083;22;20026;-91
2023/02/23 00:15:29;;;;;;;6.47;5.35;;;;;;;17.62;53.47;101369.94;6231501;22;20424;-91
2023/02/23 00:17:56;;;;;;;6.47;5.32;;;;;;;17.60;53.62;101369.06;6232374;22;20133;-91
2023/02/23 00:20:26;;;;;;;6.40;5.07;;;;;;;17.61;53.27;101372.53;6232635;22;20015;-91
2023/02/23 00:22:53;;;;;;;6.18;5.00;;;;;;;17.60;53.35;101366.47;6257831;22;20078;-91
2023/02/23 00:25:23;;;;;;;8.82;5.18;;;;;;;17.61;53.35;101367.31;6260164;22;20026;-90
2023/02/23 00:27:57;;;;;;;7.47;5.47;;;;;;;17.59;53.46;101366.47;6259783;22;20067;-92
2023/02/23 00:30:22;;;;;;;8.15;5.28;;;;;;;17.59;53.74;101369.91;6233033;22;20007;-92
2023/02/23 00:32:51;;;;;;;7.78;5.07;;;;;;;17.60;53.40;101371.66;6229222;22;20073;-92
2023/02/23 00:35:17;;;;;;;5.88;5.25;;;;;;;17.59;53.48;101375.13;6229694;22;20015;-90
2023/02/23 00:37:49;;;;;;;6.28;5.10;;;;;;;17.59;53.64;101369.91;6232023;22;20067;-91
2023/02/23 00:40:16;;;;;;;6.63;5.07;;;;;;;17.59;53.30;101367.31;6233695;22;20339;-91
2023/02/23 00:42:46;;;;;;;8.15;5.13;;;;;;;17.59;53.50;101366.47;6256774;22;20141;-92
2023/02/23 00:45:13;;;;;;;7.47;5.53;;;;;;;17.59;53.37;101366.47;6232776;22;20023;-92
2023/02/23 00:47:47;;;;;;;6.22;4.90;;;;;;;17.59;53.34;101366.47;6233649;22;20007;-92
2023/02/23 00:50:15;;;;;;;5.78;4.93;;;;;;;17.59;53.57;101369.06;6233840;22;20061;-90
2023/02/23 00:52:42;;;;;;;6.18;5.32;;;;;;;17.59;53.29;101369.91;6261505;22;20015;-96
2023/02/23 00:55:12;;;;;;;6.90;5.32;;;;;;;17.58;53.54;101372.53;6260717;22;20003;-92
2023/02/23 00:57:40;;;;;;;6.47;5.32;;;;;;;17.59;53.44;101382.06;6265689;22;20011;-90
2023/02/23 01:00:19;;;;;;;6.60;5.20;;;;;;;17.58;53.51;101375.16;6275258;22;20015;-91
2023/02/23 01:02:45;;;;;;;6.68;5.15;;;;;;;17.57;53.32;101369.09;6251217;22;20018;-92
2023/02/23 01:05:13;;;;;;;8.02;4.90;;;;;;;17.57;53.30;101363.00;6272229;22;20071;-91
2023/02/23 01:07:39;;;;;;;6.03;4.85;;;;;;;17.57;53.47;101369.09;6222887;22;20131;-91
2023/02/23 01:10:20;;;;;;;5.68;4.70;;;;;;;17.55;53.32;101363.00;6271231;22;20006;-89
2023/02/23 01:12:48;;;;;;;6.97;4.85;;;;;;;17.56;53.37;101363.88;6250111;22;20047;-90
2023/02/23 01:15:17;;;;;;;5.90;5.03;;;;;;;17.57;53.48;101363.00;6272238;22;20023;-90
2023/02/23 01:17:45;;;;;;;5.22;4.70;;;;;;;17.57;53.28;101365.59;6223675;22;19987;-90
2023/02/23 01:20:21;;;;;;;6.20;4.75;;;;;;;17.56;53.33;101366.47;6218853;22;20007;-89
2023/02/23 01:22:49;;;;;;;5.90;4.70;;;;;;;17.55;53.39;101365.63;6268239;22;20003;-90
2023/02/23 01:25:18;;;;;;;7.03;5.03;;;;;;;17.54;53.31;101361.25;6266605;22;20008;-90
2023/02/23 01:27:44;;;;;;;5.60;4.82;;;;;;;17.54;53.55;101368.22;6241435;22;20007;-91
2023/02/23 01:30:13;;;;;;;5.07;4.50;;;;;;;17.55;53.33;101372.53;6241304;22;20428;-89
2023/02/23 01:32:39;;;;;;;6.25;4.88;;;;;;;17.54;53.40;101374.28;6267389;22;20004;-90
2023/02/23 01:35:10;;;;;;;5.65;4.65;;;;;;;17.54;53.32;101363.88;6216979;22;20095;-90
2023/02/23 01:37:40;;;;;;;7.63;4.97;;;;;;;17.53;53.48;101367.34;6267399;22;20015;-90
2023/02/23 01:40:14;;;;;;;5.68;4.35;;;;;;;17.53;53.32;101369.06;6242585;22;20000;-91
2023/02/23 01:42:40;;;;;;;;;;;;;;;17.52;53.46;101378.59;6240109;22;20079;-91
2023/02/23 01:45:28;;;;;;;5.47;4.53;;;;;;;17.53;53.19;101371.66;6290485;22;19903;-90
2023/02/23 01:48:00;;;;;;;7.00;4.70;;;;;;;17.54;53.31;101374.28;6261767;22;20076;-88
2023/02/23 01:50:28;;;;;;;5.47;4.90;;;;;;;17.52;53.34;101376.00;6261738;22;20003;-90
2023/02/23 01:52:55;;;;;;;6.22;4.65;;;;;;;17.51;53.31;101369.09;6259968;22;20008;-89
2023/02/23 01:55:23;;;;;;;5.68;4.70;;;;;;;17.52;53.15;101365.59;6234968;22;19998;-90
2023/02/23 01:58:14;;;;;;;7.40;4.53;;;;;;;17.52;53.28;101375.16;6234956;22;20011;-89
2023/02/23 02:00:44;;;;;;;5.03;4.53;;;;;;;17.50;53.44;101375.13;6286436;22;20019;-90
2023/02/23 02:03:18;;;;;;;5.43;4.30;;;;;;;17.50;53.41;101369.06;6234834;22;20359;-89
2023/02/23 02:05:48;;;;;;;4.97;4.40;;;;;;;17.52;53.08;101364.75;6258737;22;20003;-89
2023/02/23 02:08:15;;;;;;;5.93;4.90;;;;;;;17.53;53.07;101371.66;6259259;22;20019;-89
2023/02/23 02:10:54;;;;;;;5.28;4.40;;;;;;;17.51;53.03;101363.00;6233483;22;20037;-90
2023/02/23 02:13:23;;;;;;;4.85;4.35;;;;;;;17.49;53.31;101365.63;6263938;22;20004;-89
2023/02/23 02:16:27;;;;;;;5.32;4.55;;;;;;;17.48;53.37;101367.34;6258772;22;20011;-88
2023/02/23 02:19:28;;;;;;;5.60;4.55;;;;;;;17.47;53.35;101363.00;6254288;22;20003;-89
2023/02/23 02:22:41;;;;;;;4.75;4.25;;;;;;;17.50;53.43;101374.28;6256624;22;20034;-87
2023/02/23 02:25:12;;;;;;;4.70;4.20;;;;;;;17.50;53.20;101372.53;6174084;23;20012;-90
2023/02/23 02:27:38;;;;;;;4.57;4.18;;;;;;;17.48;53.36;101369.06;6205297;23;20016;-89
2023/02/23 02:30:09;;;;;;;5.13;4.03;;;;;;;17.47;53.17;101367.34;6253236;22;20004;-90
2023/02/23 02:32:46;;;;;;;5.38;4.47;;;;;;;17.47;53.36;101367.34;6273075;22;20003;-89
2023/02/23 02:35:51;;;;;;;4.78;4.22;;;;;;;17.48;53.44;101369.97;6269584;22;20014;-89
2023/02/23 02:38:27;;;;;;;7.07;4.40;;;;;;;17.45;53.06;101367.34;6291324;22;20004;-89
2023/02/23 02:41:14;;;;;;;4.50;4.10;;;;;;;17.46;52.89;101370.81;6260904;22;20007;-89
2023/02/23 02:43:49;;;;;;;4.40;4.00;;;;;;;17.44;53.32;101359.53;6232558;22;20011;-89
2023/02/23 02:46:29;;;;;;;4.15;3.75;;;;;;;17.45;53.09;101356.94;6257476;22;20010;-89
2023/02/23 02:49:19;;;;;;;5.50;4.05;;;;;;;17.46;53.07;101363.00;6255520;22;20008;-89
2023/02/23 02:52:04;;;;;;;4.97;4.22;;;;;;;17.46;53.05;101360.41;6255492;22;20006;-90
2023/02/23 02:54:37;;;;;;;5.50;4.25;;;;;;;17.45;53.14;101369.09;6282244;22;20007;-89
2023/02/23 02:57:04;;;;;;;4.87;3.80;;;;;;;17.45;53.14;101372.53;6255234;22;20004;-89
2023/02/23 04:18:16;;;;;;;3.72;3.42;;;;;;;17.35;53.09;101415.03;6261442;22;20074;-89
2023/02/23 04:20:42;;;;;;;3.78;3.20;;;;;;;17.36;53.22;101419.38;6252912;22;20004;-90
2023/02/23 04:23:07;;;;;;;4.50;3.78;;;;;;;17.35;53.04;101420.22;6227800;22;20018;-90
2023/02/23 04:25:32;;;;;;;4.10;3.35;;;;;;;17.35;53.24;101425.44;6228014;22;19999;-91
2023/02/23 04:27:58;;;;;;;4.47;3.63;;;;;;;17.35;53.26;101416.78;6227901;22;20313;-93
2023/02/23 04:30:24;;;;;;;3.72;3.33;;;;;;;17.35;53.16;101416.78;6202770;22;20012;-92
2023/02/23 04:32:53;;;;;;;3.97;3.47;;;;;;;17.36;53.24;101418.53;6253325;22;20365;-90
2023/02/23 04:35:19;;;;;;;3.72;3.38;;;;;;;17.34;53.16;101417.66;6228051;22;20012;-90
2023/02/23 04:37:44;;;;;;;4.03;3.50;;;;;;;17.33;53.20;101419.34;6228319;22;20482;-90
2023/02/23 04:40:10;;;;;;;4.38;3.53;;;;;;;17.33;53.25;101421.09;6279450;22;20079;-90
2023/02/23 04:42:38;;;;;;;4.32;3.83;;;;;;;17.32;53.26;101430.66;6228984;22;20007;-91
2023/02/23 04:45:03;;;;;;;4.85;3.97;;;;;;;17.32;53.16;101424.59;6253308;22;20421;-90
2023/02/23 04:47:29;;;;;;;4.43;3.60;;;;;;;17.32;53.02;101428.03;6202588;22;19999;-92
2023/02/23 04:49:54;;;;;;;4.30;3.45;;;;;;;17.33;53.19;101423.72;6227716;22;20018;-91
2023/02/23 04:52:20;;;;;;;4.55;3.47;;;;;;;17.32;53.12;101430.66;6202647;22;20463;-92
2023/02/23 04:54:45;;;;;;;4.55;3.65;;;;;;;17.33;53.20;101434.97;6253234;22;20003;-91
2023/02/23 04:57:10;;;;;;;4.25;3.70;;;;;;;17.30;53.29;101437.59;6227490;22;20053;-91
2023/02/23 04:59:36;;;;;;;4.22;3.65;;;;;;;17.30;53.19;101432.38;6202846;22;20015;-91
2023/02/23 05:02:02;;;;;;;4.28;3.70;;;;;;;17.30;53.37;101439.31;6202664;22;20091;-92
2023/02/23 05:04:27;;;;;;;3.40;3.10;;;;;;;17.32;53.10;101442.78;6228002;22;20018;-92
2023/02/23 05:06:53;;;;;;;3.70;3.30;;;;;;;17.31;53.05;101433.25;6255394;22;20011;-92
2023/02/23 05:09:19;;;;;;;3.30;3.00;;;;;;;17.32;53.19;101440.19;6243674;22;20022;-91
2023/02/23 05:11:45;;;;;;;4.05;3.40;;;;;;;17.33;53.38;101447.97;6251851;22;20083;-90
2023/02/23 05:14:13;;;;;;;4.53;3.22;;;;;;;17.33;53.33;101445.38;6274832;22;20011;-90
2023/02/23 05:16:38;;;;;;;3.45;3.15;;;;;;;17.34;53.11;101441.94;6247774;22;20042;-91
2023/02/23 05:19:11;;;;;;;3.78;3.30;;;;;;;17.33;53.00;101442.78;6256032;22;20008;-90
2023/02/23 05:21:40;;;;;;;3.75;3.35;;;;;;;17.33;53.19;101441.91;6229450;22;20027;-89
2023/02/23 05:24:09;;;;;;;3.55;3.25;;;;;;;17.34;53.23;101447.13;6229328;22;20083;-91
2023/02/23 05:26:35;;;;;;;3.50;3.10;;;;;;;17.35;53.24;101445.38;6228829;22;20015;-90
2023/02/23 05:29:12;;;;;;;3.70;3.20;;;;;;;17.34;53.22;101449.72;6203777;22;20007;-90
2023/02/23 05:35:18;;;;;;;3.50;2.90;;;;;;;17.35;53.23;101459.25;6281220;22;20030;-91
2023/02/23 05:37:44;;;;;;;3.40;3.10;;;;;;;17.35;53.05;101459.25;6227912;22;20014;-90
2023/02/23 05:40:15;;;;;;;4.05;3.10;;;;;;;17.35;53.15;101458.41;6203925;22;20011;-94
2023/02/23 05:42:49;;;;;;;3.67;2.88;;;;;;;17.36;53.05;101465.34;6228442;22;20072;-91
2023/02/23 05:45:22;;;;;;;3.47;3.17;;;;;;;17.36;52.88;101462.75;6230055;22;20004;-93
2023/02/23 05:47:54;;;;;;;3.28;2.90;;;;;;;17.36;53.06;101457.53;6253505;22;20060;-91
2023/02/23 05:50:38;;;;;;;3.50;3.20;;;;;;;17.37;53.06;101462.72;6202448;22;20012;-91
2023/02/23 05:53:04;;;;;;;2.88;2.55;;;;;;;17.36;53.24;101453.19;6279434;22;20078;-89
2023/02/23 05:55:29;;;;;;;3.38;3.08;;;;;;;17.36;53.12;101452.34;6227183;22;20031;-89
2023/02/23 05:57:57;;;;;;;3.22;2.92;;;;;;;17.36;52.78;101453.19;6251729;22;20004;-89
2023/02/23 06:00:29;;;;;;;3.42;2.90;;;;;;;17.35;53.16;101448.00;6241096;23;20042;-91
2023/02/23 06:02:57;;;;;;;3.90;3.20;;;;;;;17.36;53.16;101457.53;6197224;23;20004;-89
2023/02/23 06:05:31;;;;;;;3.15;2.72;;;;;;;17.36;52.93;101455.81;6197401;23;20058;-89
2023/02/23 06:07:57;;;;;;;3.50;2.63;;;;;;;17.36;53.13;101454.94;6173507;23;20030;-90
2023/02/23 06:10:22;;;;;;;3.42;3.10;;;;;;;17.37;53.13;101462.72;6221931;23;20008;-89
2023/02/23 06:12:50;;;;;;;3.17;2.85;;;;;;;17.37;53.24;101459.28;6221677;23;20026;-89
2023/02/23 06:15:39;;;;;;;3.20;2.70;;;;;;;17.37;53.22;101467.06;6197229;23;20036;-89
2023/02/23 06:18:12;;;;;;;3.45;3.15;;;;;;;17.37;53.22;101461.88;6221756;23;20023;-88
2023/02/23 06:20:37;;;;;;;3.03;2.70;;;;;;;17.36;53.22;101467.94;6220916;23;20011;-80
2023/02/23 06:23:03;;;;;;;4.15;2.72;;;;;;;17.36;53.51;101466.22;6220852;23;20000;-88
2023/02/23 06:25:48;;;;;;;3.20;2.80;;;;;;;17.38;53.22;101466.22;6195231;23;20055;-86
2023/02/23 06:28:17;;;;;;;6.53;3.15;;;;;;;17.38;53.32;101469.69;6220282;23;20498;-86
2023/02/23 06:30:43;;;;;;;3.22;2.63;;;;;;;17.39;53.33;101474.00;6221478;23;20007;-89
2023/02/23 06:33:17;;;;;;;4.22;3.00;;;;;;;17.36;53.49;101481.81;6222104;23;20004;-91
2023/02/23 06:35:45;;;;;;;4.93;2.63;;;;;;;17.38;53.19;101477.50;6199874;23;20004;-90
2023/02/23 06:38:11;;;;;;;3.63;2.70;;;;;;;17.39;53.30;101479.22;6198264;23;20425;-82
2023/02/23 06:40:37;;;;;;;4.15;2.78;;;;;;;17.42;53.55;101484.44;6223797;23;20069;-92
2023/02/23 06:43:04;;;;;;;6.13;2.65;;;;;;;17.41;53.50;101487.88;6223483;23;20004;-87
2023/02/23 06:45:33;;;;;;;4.00;2.55;;;;;;;17.45;53.38;101493.97;6197186;23;20372;-80
2023/02/23 06:48:04;;;;;;;4.20;2.53;;;;;;;17.49;53.68;101493.13;6198351;23;20048;-91
2023/02/23 06:50:29;;;;;;;18.98;6.50;;;;;;;17.57;53.99;101499.22;6222963;23;20011;-87
2023/02/23 06:52:56;;;;;;;13.05;5.13;;;;;;;17.65;54.06;101497.44;6223462;23;20000;-88
2023/02/23 06:55:36;;;;;;;13.38;5.07;;;;;;;17.70;53.92;101502.66;6198119;23;20018;-85
2023/02/23 06:58:03;;;;;;;12.60;4.20;;;;;;;17.74;53.77;101501.78;6221947;23;20000;-84
2023/02/23 07:00:35;;;;;;;10.93;4.38;;;;;;;17.76;53.79;101509.63;6209656;22;20054;-86
2023/02/23 07:03:00;;;;;;;8.73;4.03;;;;;;;17.75;53.94;101511.34;6278862;22;19995;-86
2023/02/23 07:05:26;;;;;;;7.68;3.83;;;;;;;17.76;53.65;101520.88;6247301;23;20015;-83
2023/02/23 07:07:53;;;;;;;5.93;3.15;;;;;;;17.77;53.60;101520.03;6197259;23;20023;-84
2023/02/23 07:10:19;;;;;;;6.55;3.60;;;;;;;17.80;53.44;101524.38;6251229;22;20011;-85
2023/02/23 07:12:56;;;;;;;8.05;3.10;;;;;;;17.81;53.61;101532.19;6196862;23;20012;-83
2023/02/23 07:15:21;;;;;;;7.10;3.75;;;;;;;17.82;53.55;101533.94;6251774;22;20007;-82
2023/02/23 07:17:48;;;;;;;8.57;3.30;;;;;;;17.83;53.52;101540.91;6279250;22;20003;-81
2023/02/23 07:20:16;;;;;;;6.15;3.20;;;;;;;17.83;53.41;101543.50;6249749;22;20012;-81
2023/02/23 07:22:42;;;;;;;4.03;2.70;;;;;;;17.85;53.45;101544.34;6221959;23;20034;-79
2023/02/23 07:25:13;;;;;;;4.25;2.90;;;;;;;17.85;53.11;101541.75;6249039;22;20000;-83
2023/02/23 07:27:44;;;;;;;6.88;2.75;;;;;;;17.86;53.42;101546.09;6246830;23;20359;-81
2023/02/23 07:30:10;;;;;;;6.53;3.03;;;;;;;17.88;53.33;101556.53;6248343;22;20015;-81
2023/02/23 07:32:35;;;;;;;5.22;2.40;;;;;;;17.89;53.38;101558.25;6196304;23;20425;-81
2023/02/23 07:35:02;;;;;;;4.95;2.70;;;;;;;17.87;53.35;101563.44;6197045;22;20011;-81
2023/02/23 07:37:27;;;;;;;4.78;2.10;;;;;;;17.89;53.29;101566.94;6247031;23;20380;-80
2023/02/23 07:39:52;;;;;;;4.22;2.55;;;;;;;17.89;53.07;101569.53;6196228;23;20038;-85
2023/02/23 07:42:18;;;;;;;4.03;2.42;;;;;;;17.89;53.00;101569.53;6225796;22;20314;-81
2023/02/23 07:44:46;;;;;;;7.07;2.70;;;;;;;17.91;53.30;101576.50;6197252;23;20015;-82
2023/02/23 07:47:11;;;;;;;3.47;2.03;;;;;;;17.92;53.26;101578.22;6223983;22;20035;-85
2023/02/23 07:49:42;;;;;;;4.97;2.20;;;;;;;17.93;53.02;101582.56;6223096;23;20012;-87
2023/02/23 07:52:08;;;;;;;4.18;2.47;;;;;;;17.92;53.10;101584.31;6205946;22;20012;-85
2023/02/23 07:54:33;;;;;;;3.92;2.08;;;;;;;17.87;53.24;101592.09;6235152;23;20336;-82
2023/02/23 07:57:05;;;;;;;4.60;2.30;;;;;;;17.87;53.14;101593.84;6208056;23;20031;-85
2023/02/23 07:59:38;;;;;;;2.92;1.98;;;;;;;17.85;53.45;101591.22;6257404;22;20004;-87
2023/02/23 08:02:03;;;;;;;3.00;2.03;;;;;;;17.86;53.03;101594.72;6257523;22;20007;-86
2023/02/23 08:04:29;;;;;;;4.18;2.25;;;;;;;17.87;53.13;101596.44;6228113;22;20416;-87
2023/02/23 08:07:00;;;;;;;8.98;2.20;;;;;;;17.87;53.08;101596.44;6227639;22;20436;-86
2023/02/23 08:09:29;;;;;;;3.40;2.00;;;;;;;17.87;53.28;101597.28;6203891;22;20011;-87
2023/02/23 08:11:54;;;;;;;3.13;2.30;;;;;;;17.86;53.18;101597.31;6227595;22;20035;-84
2023/02/23 08:17:12;;;;;;;3.80;2.03;;;;;;;17.88;53.37;101600.78;6269246;22;20369;-85
2023/02/23 08:19:37;;;;;;;3.40;1.98;;;;;;;17.87;53.09;101602.50;6252049;22;20043;-87
2023/02/23 08:22:08;;;;;;;3.45;1.70;;;;;;;17.88;53.27;101600.78;6227190;22;20027;-85
2023/02/23 08:24:33;;;;;;;4.07;1.80;;;;;;;17.87;53.34;101612.91;6251830;22;20011;-86
2023/02/23 08:27:01;;;;;;;3.42;1.98;;;;;;;17.88;53.19;101611.22;6277458;22;20007;-87
2023/02/23 08:29:33;;;;;;;3.28;1.75;;;;;;;17.88;53.01;101621.63;6251480;22;20008;-85
2023/02/23 08:32:28;;;;;;;2.75;1.90;;;;;;;17.87;53.00;101625.06;6228271;22;20436;-86
2023/02/23 08:34:54;;;;;;;3.40;1.80;;;;;;;17.85;53.07;101617.25;6245602;22;20032;-87
2023/02/23 08:37:19;;;;;;;3.53;1.95;;;;;;;17.87;53.14;101625.94;6227191;22;20019;-86
2023/02/23 08:39:45;;;;;;;3.28;1.77;;;;;;;17.86;52.82;101632.03;6226438;22;20042;-86
2023/02/23 08:42:10;;;;;;;3.17;1.80;;;;;;;17.86;52.94;101632.03;6201568;22;20037;-86
2023/02/23 08:44:36;;;;;;;3.05;2.05;;;;;;;17.87;52.99;101631.16;6202093;22;20463;-87
2023/02/23 08:47:03;;;;;;;3.58;1.95;;;;;;;17.87;53.13;101633.75;6201345;22;20053;-87
2023/02/23 08:49:34;;;;;;;2.33;1.70;;;;;;;17.87;52.88;101627.69;6201723;22;20043;-86
2023/02/23 08:52:12;;;;;;;3.55;1.63;;;;;;;17.88;53.30;101634.66;6251632;22;20003;-85
2023/02/23 08:54:39;;;;;;;2.65;1.75;;;;;;;17.89;53.00;101636.38;6251669;22;20377;-86
2023/02/23 08:57:05;;;;;;;3.17;1.70;;;;;;;17.89;53.09;101631.16;6226180;22;20007;-86
2023/02/23 08:59:40;;;;;;;2.75;1.70;;;;;;;17.89;52.54;101634.63;6251578;22;20003;-86
2023/02/23 09:02:14;;;;;;;2.92;1.50;;;;;;;17.89;52.86;101628.56;6221226;22;20104;-85
2023/02/23 09:04:52;;;;;;;2.88;1.83;;;;;;;17.90;53.18;101640.72;6251763;22;20066;-86
2023/02/23 09:07:21;;;;;;;2.83;1.70;;;;;;;17.89;52.89;101637.22;6228155;22;20054;-86
2023/02/23 09:09:54;;;;;;;2.83;1.70;;;;;;;17.88;52.74;101645.06;6227435;22;20107;-85
2023/02/23 09:12:19;;;;;;;2.45;1.60;;;;;;;17.89;52.68;101652.00;6226803;22;20004;-86
2023/02/23 09:14:45;;;;;;;3.67;1.77;;;;;;;17.89;52.87;101650.25;6226284;22;20103;-86
2023/02/23 09:17:11;;;;;;;3.97;1.60;;;;;;;17.89;52.70;101654.59;6226247;22;20034;-86
2023/02/23 09:19:37;;;;;;;2.90;1.63;;;;;;;17.89;52.61;101660.66;6252007;22;20011;-87
2023/02/23 09:22:02;;;;;;;2.85;1.55;;;;;;;17.88;52.82;101663.28;6226954;22;20008;-86
2023/02/23 09:24:28;;;;;;;2.60;1.65;;;;;;;17.91;52.72;101654.59;6251334;22;20002;-86
2023/02/23 09:26:56;;;;;;;3.22;1.77;;;;;;;17.90;52.62;101658.97;6226571;22;20008;-85
2023/02/23 09:29:28;;;;;;;2.78;1.65;;;;;;;17.90;52.68;101656.34;6252857;22;20058;-87
2023/02/23 09:31:56;;;;;;;2.72;1.60;;;;;;;17.93;52.69;101655.47;6203304;22;20042;-86
2023/02/23 09:34:23;;;;;;;2.65;1.80;;;;;;;17.93;52.69;101663.28;6202709;22;20008;-87
2023/02/23 09:36:48;;;;;;;2.53;1.50;;;;;;;17.94;52.61;101659.81;6251729;22;20008;-86
2023/02/23 09:39:20;;;;;;;2.33;1.40;;;;;;;17.94;52.80;101662.41;6200977;22;20008;-87
2023/02/23 09:42:10;;;;;;;2.30;1.50;;;;;;;17.94;52.69;101660.66;6201694;22;20432;-86
2023/02/23 09:44:58;;;;;;;3.00;1.90;;;;;;;17.95;52.44;101664.16;6252326;22;19999;-87
2023/02/23 09:47:40;;;;;;;2.47;1.90;;;;;;;17.96;52.38;101671.97;6251783;22;20031;-87
2023/02/23 09:50:19;;;;;;;2.42;1.60;;;;;;;17.97;52.33;101671.13;6251703;22;20010;-86
2023/02/23 09:52:51;;;;;;;3.00;1.85;;;;;;;17.98;52.53;101680.66;6251054;22;20007;-87
2023/02/23 09:55:26;;;;;;;2.38;1.75;;;;;;;18.00;52.41;101676.31;6251917;22;20012;-88
2023/02/23 09:57:53;;;;;;;2.95;1.60;;;;;;;18.01;52.22;101685.03;6251312;22;20000;-87
2023/02/23 10:00:27;;;;;;;3.25;2.13;;;;;;;18.01;52.31;101682.41;6225604;22;20019;-84
2023/02/23 10:03:17;;;;;;;2.75;1.83;;;;;;;18.00;52.22;101678.91;6251115;22;20078;-86
2023/02/23 10:05:49;;;;;;;2.70;2.03;;;;;;;17.98;52.41;101679.78;6251557;22;20007;-87
2023/02/23 10:08:33;;;;;;;3.33;2.20;;;;;;;17.97;52.34;101676.31;6251443;22;20070;-86
2023/02/23 10:11:06;;;;;;;3.95;2.58;;;;;;;17.96;52.43;101689.31;6251207;22;20000;-86
2023/02/23 10:13:50;;;;;;;3.75;2.20;;;;;;;17.95;52.32;101693.69;6251292;22;20004;-86
2023/02/23 10:17:14;;;;;;;3.67;2.47;;;;;;;17.93;52.43;101698.00;6251475;22;20343;-86
2023/02/23 10:20:05;;;;;;;3.40;2.28;;;;;;;17.91;52.52;101710.16;6223285;22;20008;-86
2023/02/23 10:22:41;;;;;;;3.67;2.42;;;;;;;17.89;52.31;101704.94;6251206;22;20015;-87
2023/02/23 10:25:41;;;;;;;4.05;2.58;;;;;;;17.89;52.61;101709.28;6250605;22;20012;-83
2023/02/23 10:28:13;;;;;;;3.78;2.38;;;;;;;17.90;52.28;101713.63;6247017;22;20031;-86
2023/02/23 10:30:42;;;;;;;4.20;2.77;;;;;;;17.87;52.55;101704.06;6254049;22;19996;-88
2023/02/23 10:33:48;;;;;;;4.82;2.80;;;;;;;17.86;52.51;101707.53;6229146;22;20099;-87
2023/02/23 10:36:44;;;;;;;4.47;2.90;;;;;;;17.86;52.50;101704.94;6256938;22;20485;-87
2023/02/23 10:39:34;;;;;;;4.80;2.90;;;;;;;17.88;52.31;101704.94;6265857;22;20037;-84
2023/02/23 10:42:35;;;;;;;5.45;2.70;;;;;;;17.91;52.34;101704.94;6265543;22;20011;-87
2023/02/23 10:45:26;;;;;;;3.78;2.80;;;;;;;17.92;52.33;101705.81;6259939;22;20030;-88
2023/02/23 10:48:25;;;;;;;5.63;2.78;;;;;;;17.91;52.52;101711.91;6252447;22;20007;-87
2023/02/23 10:51:01;;;;;;;4.07;3.13;;;;;;;17.89;52.62;101712.75;6251906;22;20436;-85
2023/02/23 10:53:36;;;;;;;6.47;2.70;;;;;;;17.89;52.53;101714.50;6252377;22;20034;-87
2023/02/23 10:56:21;;;;;;;4.43;2.80;;;;;;;17.89;52.29;101723.16;6251808;22;20000;-87
2023/02/23 10:58:56;;;;;;;4.43;2.70;;;;;;;17.90;52.40;101721.44;6251897;22;20012;-86
2023/02/23 11:01:43;;;;;;;5.18;2.65;;;;;;;17.91;52.26;101735.34;6250820;22;20401;-87
2023/02/23 11:04:33;;;;;;;4.78;2.63;;;;;;;17.87;52.17;101730.09;6278985;22;19996;-87
2023/02/23 11:07:17;;;;;;;4.40;2.92;;;;;;;17.92;52.37;101731.84;6251439;22;20454;-86
2023/02/23 11:09:52;;;;;;;4.43;2.97;;;;;;;17.94;52.47;101735.31;6251856;22;20319;-84
2023/02/23 11:12:28;;;;;;;3.80;2.75;;;;;;;17.91;52.24;101736.19;6277880;22;20026;-84
2023/02/23 11:14:56;;;;;;;4.10;2.88;;;;;;;17.88;52.11;101739.66;6251407;22;20026;-86
2023/02/23 11:17:39;;;;;;;3.97;2.63;;;;;;;17.86;52.26;101745.72;6226131;22;20012;-85
2023/02/23 11:20:17;;;;;;;4.23;2.83;;;;;;;17.85;52.36;101742.22;6251031;22;20412;-86
2023/02/23 11:23:00;;;;;;;3.83;2.88;;;;;;;17.83;52.27;101733.56;6252519;22;20002;-86
2023/02/23 11:25:40;;;;;;;4.43;3.10;;;;;;;17.83;52.51;101735.28;6253722;22;20019;-87
2023/02/23 11:28:23;;;;;;;4.03;2.90;;;;;;;17.82;52.49;101733.56;6253420;22;20066;-85
2023/02/23 11:30:50;;;;;;;4.97;3.50;;;;;;;17.83;52.36;101727.47;6253555;22;20004;-86
2023/02/23 11:33:30;;;;;;;3.78;2.80;;;;;;;17.81;52.17;101735.28;6251056;22;20069;-88
2023/02/23 11:36:17;;;;;;;4.40;3.00;;;;;;;17.84;52.11;101729.22;6253047;22;20022;-87
2023/02/23 11:38:53;;;;;;;5.10;3.33;;;;;;;17.84;52.31;101727.50;6253436;22;19999;-87
2023/02/23 11:41:22;;;;;;;5.18;3.45;;;;;;;17.87;52.29;101737.91;6252914;22;20010;-86
2023/02/23 11:43:56;;;;;;;4.63;3.10;;;;;;;17.87;52.31;101734.44;6253346;22;20014;-87
2023/02/23 11:46:22;;;;;;;3.95;3.22;;;;;;;17.92;52.18;101737.06;6253076;22;19999;-86
2023/02/23 11:48:54;;;;;;;4.95;3.30;;;;;;;17.91;51.96;101741.41;6227707;22;20027;-85
2023/02/23 11:51:32;;;;;;;5.32;3.40;;;;;;;17.94;51.88;101741.41;6252465;22;20031;-85
2023/02/23 11:54:10;;;;;;;3.50;2.63;;;;;;;17.94;52.15;101738.78;6252265;22;20067;-86
2023/02/23 11:56:35;;;;;;;4.30;3.00;;;;;;;17.96;52.21;101733.59;6253038;22;20000;-84
2023/02/23 11:59:17;;;;;;;4.40;3.03;;;;;;;17.98;51.95;101737.09;6227442;22;20007;-86
2023/02/23 12:02:01;;;;;;;3.35;2.85;;;;;;;17.97;51.86;101740.56;6252272;22;20110;-85
2023/02/23 12:04:36;;;;;;;3.85;2.90;;;;;;;17.96;52.10;101734.47;6252292;22;20000;-84
2023/02/23 12:07:26;;;;;;;3.47;2.60;;;;;;;17.99;52.04;101738.84;6252669;22;20025;-84
2023/02/23 12:10:11;;;;;;;4.38;2.85;;;;;;;17.97;52.01;101728.41;6252576;22;20011;-86
2023/02/23 12:13:11;;;;;;;4.28;2.80;;;;;;;18.00;51.86;101723.19;6251686;22;20072;-84
2023/02/23 12:16:07;;;;;;;3.53;2.80;;;;;;;18.06;51.75;101725.81;6252444;22;19996;-86
2023/02/23 12:18:57;;;;;;;3.60;2.70;;;;;;;18.07;51.73;101724.97;6251801;22;20007;-85
2023/02/23 12:21:38;;;;;;;3.80;2.70;;;;;;;18.14;51.68;101717.16;6279508;22;20372;-86
2023/02/23 12:24:24;;;;;;;3.45;2.47;;;;;;;18.17;51.47;101715.44;6251973;22;20000;-85
2023/02/23 12:26:59;;;;;;;3.83;2.67;;;;;;;18.17;51.21;101718.03;6252207;22;20007;-86
2023/02/23 12:29:31;;;;;;;3.17;2.50;;;;;;;18.15;51.55;101724.97;6252076;22;20007;-84
2023/02/23 12:32:15;;;;;;;3.10;2.22;;;;;;;18.16;51.43;101721.53;6251477;22;20014;-86
2023/02/23 12:34:44;;;;;;;3.17;2.33;;;;;;;18.21;51.35;101717.19;6252053;22;20007;-84
2023/02/23 12:37:28;;;;;;;4.18;2.97;;;;;;;18.23;51.32;101715.44;6252220;22;20007;-86
2023/02/23 12:40:27;;;;;;;4.50;3.30;;;;;;;18.21;51.31;101719.78;6252806;22;20026;-84
2023/02/23 12:43:03;;;;;;;4.50;3.10;;;;;;;18.18;51.79;101711.97;6245858;22;20027;-83
2023/02/23 12:45:41;;;;;;;5.82;2.92;;;;;;;18.19;51.68;101710.22;6252052;22;20007;-87
2023/02/23 12:48:28;;;;;;;7.07;3.13;;;;;;;18.18;51.45;101706.75;6252425;22;20042;-86
2023/02/23 12:51:00;;;;;;;5.03;3.10;;;;;;;18.16;51.55;101707.59;6279970;22;19992;-86
2023/02/23 12:53:43;;;;;;;4.88;2.78;;;;;;;18.12;51.51;101717.16;6252374;22;20062;-88
2023/02/23 12:56:26;;;;;;;4.78;3.05;;;;;;;18.09;51.69;101714.53;6279700;22;20037;-87
2023/02/23 12:59:13;;;;;;;4.78;2.70;;;;;;;18.07;51.92;101708.44;6251020;22;20008;-88
2023/02/23 13:01:51;;;;;;;3.75;2.70;;;;;;;18.06;51.72;101710.19;6279368;22;20019;-87
2023/02/23 13:04:39;;;;;;;4.32;2.97;;;;;;;18.05;51.88;101708.47;6252370;22;20004;-88
2023/02/23 13:07:19;;;;;;;5.90;3.10;;;;;;;18.05;51.95;101707.56;6252995;22;20478;-89
2023/02/23 13:09:53;;;;;;;5.10;3.03;;;;;;;18.06;51.65;101712.78;6253916;22;20011;-87
2023/02/23 13:12:33;;;;;;;5.00;3.08;;;;;;;18.03;51.85;101711.91;6254973;22;20003;-87
2023/02/23 13:15:10;;;;;;;3.65;2.90;;;;;;;18.03;51.93;101719.72;6258665;22;20378;-88
2023/02/23 13:17:44;;;;;;;4.47;3.10;;;;;;;18.05;51.67;101716.28;6266394;22;20008;-87